createdAt,value
2019-01-16T00:00:41.385Z,2.90
2019-01-16T00:03:25.842Z,2.70
2019-01-16T00:06:04.426Z,2.60
2019-01-16T00:08:45.930Z,2.77
2019-01-16T00:11:18.451Z,2.67
2019-01-16T00:13:51.154Z,2.90
2019-01-16T00:16:20.926Z,2.50
2019-01-16T00:18:53.246Z,2.50
2019-01-16T00:21:32.054Z,3.07
2019-01-16T00:24:18.087Z,2.30
2019-01-16T00:26:59.652Z,2.67
2019-01-16T00:29:29.413Z,2.67
2019-01-16T00:32:11.430Z,2.87
2019-01-16T00:34:47.190Z,3.03
2019-01-16T00:37:19.858Z,3.00
2019-01-16T00:39:49.749Z,2.83
2019-01-16T00:42:28.285Z,3.30
2019-01-16T00:45:03.828Z,2.70
2019-01-16T00:47:33.761Z,2.73
2019-01-16T00:50:09.209Z,3.07
2019-01-16T00:52:41.902Z,2.90
2019-01-16T00:55:14.133Z,2.93
2019-01-16T00:57:58.725Z,3.30
2019-01-16T01:00:28.530Z,2.90
2019-01-16T01:03:15.962Z,3.50
2019-01-16T01:05:54.316Z,3.30
2019-01-16T01:08:38.930Z,3.00
2019-01-16T01:11:11.348Z,3.43
2019-01-16T01:13:41.123Z,3.07
2019-01-16T01:16:13.758Z,3.17
2019-01-16T01:18:59.442Z,2.90
2019-01-16T01:21:46.934Z,2.70
2019-01-16T01:24:28.629Z,2.80
2019-01-16T01:27:10.309Z,2.87
2019-01-16T01:29:55.045Z,3.30
2019-01-16T01:32:40.750Z,3.33
2019-01-16T01:35:18.992Z,3.40
2019-01-16T01:38:03.725Z,2.90
2019-01-16T01:40:36.134Z,3.10
2019-01-16T01:43:22.002Z,3.07
2019-01-16T01:45:54.292Z,3.17
2019-01-16T01:48:41.988Z,3.07
2019-01-16T01:51:27.641Z,3.20
2019-01-16T01:54:09.295Z,2.87
2019-01-16T01:56:41.582Z,2.90
2019-01-16T01:59:11.342Z,2.70
2019-01-16T02:01:49.687Z,2.97
2019-01-16T02:04:35.600Z,2.80
2019-01-16T02:07:05.413Z,2.80
2019-01-16T02:09:37.710Z,2.63
2019-01-16T02:12:13.265Z,2.57
2019-01-16T02:14:45.701Z,2.80
2019-01-16T02:17:31.638Z,2.93
2019-01-16T02:20:16.195Z,2.70
2019-01-16T02:23:02.029Z,2.60
2019-01-16T02:25:34.422Z,2.90
2019-01-16T02:28:04.165Z,2.60
2019-01-16T02:30:42.815Z,2.73
2019-01-16T02:33:24.151Z,2.73
2019-01-16T02:35:54.174Z,2.50
2019-01-16T02:38:23.921Z,2.70
2019-01-16T02:40:53.686Z,2.77
2019-01-16T02:43:32.041Z,2.70
2019-01-16T02:46:01.772Z,2.73
2019-01-16T02:48:34.184Z,2.40
2019-01-16T02:51:12.741Z,2.80
2019-01-16T02:53:48.390Z,2.30
2019-01-16T02:56:20.936Z,2.37
2019-01-16T02:58:50.674Z,2.70
2019-01-16T03:01:22.877Z,2.30
2019-01-16T03:04:01.727Z,2.50
2019-01-16T03:06:31.454Z,2.83
2019-01-16T03:09:01.210Z,2.30
2019-01-16T03:11:36.913Z,2.40
2019-01-16T03:14:15.631Z,2.50
2019-01-16T03:16:48.090Z,2.47
2019-01-16T03:19:20.337Z,2.50
2019-01-16T03:22:06.367Z,2.47
2019-01-16T03:24:44.722Z,2.50
2019-01-16T03:27:14.680Z,2.53
2019-01-16T03:29:44.394Z,2.40
2019-01-16T03:32:20.099Z,2.50
2019-01-16T03:34:49.850Z,2.63
2019-01-16T03:37:19.562Z,2.50
2019-01-16T03:39:55.005Z,2.57
2019-01-16T03:42:39.363Z,2.70
2019-01-16T03:45:09.411Z,2.10
2019-01-16T03:47:41.720Z,2.60
2019-01-16T03:50:27.427Z,2.30
2019-01-16T03:53:02.805Z,2.43
2019-01-16T03:55:48.424Z,2.40
2019-01-16T03:58:18.168Z,2.77
2019-01-16T04:00:50.774Z,2.73
2019-01-16T04:03:36.494Z,2.80
2019-01-16T04:06:08.878Z,3.30
2019-01-16T04:08:50.693Z,2.63
2019-01-16T04:11:29.089Z,2.80
2019-01-16T04:14:13.937Z,2.80
2019-01-16T04:16:46.277Z,2.73
2019-01-16T04:19:21.501Z,2.60
2019-01-16T04:21:47.979Z,2.80
2019-01-16T04:24:17.757Z,3.30
2019-01-16T04:27:03.520Z,2.80
2019-01-16T04:29:36.049Z,2.87
2019-01-16T04:32:08.589Z,2.80
2019-01-16T04:34:41.023Z,2.60
2019-01-16T04:37:13.593Z,3.43
2019-01-16T04:39:55.339Z,3.23
2019-01-16T04:42:25.120Z,3.10
2019-01-16T04:45:12.712Z,3.30
2019-01-16T04:47:42.643Z,3.20
2019-01-16T04:50:12.415Z,3.23
2019-01-16T04:52:42.148Z,3.40
2019-01-16T04:55:12.143Z,3.60
2019-01-16T04:57:47.589Z,3.93
2019-01-16T05:00:17.474Z,3.40
2019-01-16T05:02:49.709Z,3.60
2019-01-16T05:05:31.270Z,3.93
2019-01-16T05:08:09.882Z,3.87
2019-01-16T05:10:42.223Z,3.70
2019-01-16T05:13:14.509Z,3.80
2019-01-16T05:15:44.254Z,3.50
2019-01-16T05:18:19.847Z,3.70
2019-01-16T05:21:04.441Z,4.03
2019-01-16T05:23:36.637Z,3.33
2019-01-16T05:26:22.647Z,3.90
2019-01-16T05:28:52.499Z,3.90
2019-01-16T05:31:27.716Z,3.83
2019-01-16T05:34:00.330Z,4.07
2019-01-16T05:36:35.733Z,4.37
2019-01-16T05:39:18.678Z,4.00
2019-01-16T05:41:53.982Z,3.80
2019-01-16T05:44:29.494Z,4.50
2019-01-16T05:47:08.345Z,4.60
2019-01-16T05:49:46.652Z,4.63
2019-01-16T05:52:17.640Z,4.37
2019-01-16T05:55:03.560Z,4.37
2019-01-16T05:57:33.317Z,4.47
2019-01-16T06:00:08.637Z,4.60
2019-01-16T06:02:41.044Z,4.73
2019-01-16T06:05:25.664Z,4.70
2019-01-16T06:08:10.209Z,4.87
2019-01-16T06:10:40.283Z,4.83
2019-01-16T06:13:26.174Z,5.00
2019-01-16T06:15:58.794Z,4.93
2019-01-16T06:18:46.374Z,5.10
2019-01-16T06:21:22.008Z,5.23
2019-01-16T06:24:00.741Z,4.87
2019-01-16T06:26:48.493Z,5.40
2019-01-16T06:29:18.263Z,5.47
2019-01-16T06:32:04.171Z,5.60
2019-01-16T06:34:49.950Z,5.67
2019-01-16T06:37:25.466Z,5.70
2019-01-16T06:39:57.786Z,5.70
2019-01-16T06:42:30.102Z,5.37
2019-01-16T06:45:02.830Z,5.80
2019-01-16T06:47:32.558Z,5.47
2019-01-16T06:50:16.519Z,5.40
2019-01-16T06:52:45.324Z,5.83
2019-01-16T06:55:17.806Z,6.10
2019-01-16T06:57:47.585Z,6.17
2019-01-16T07:00:19.970Z,5.83
2019-01-16T07:03:05.674Z,5.70
2019-01-16T07:05:43.954Z,5.53
2019-01-16T07:08:13.980Z,5.90
2019-01-16T07:10:46.444Z,5.93
2019-01-16T07:13:34.079Z,5.60
2019-01-16T07:16:03.862Z,5.47
2019-01-16T07:18:36.401Z,5.77
2019-01-16T07:21:18.109Z,6.07
2019-01-16T07:23:56.661Z,6.23
2019-01-16T07:26:35.190Z,6.50
2019-01-16T07:29:04.945Z,6.00
2019-01-16T07:31:40.758Z,5.90
2019-01-16T07:34:10.518Z,5.60
2019-01-16T07:36:46.042Z,5.97
2019-01-16T07:39:24.660Z,6.17
2019-01-16T07:41:54.734Z,6.10
2019-01-16T07:44:30.552Z,6.30
2019-01-16T07:47:12.572Z,6.70
2019-01-16T07:49:58.192Z,6.07
2019-01-16T07:52:33.565Z,5.30
2019-01-16T07:55:03.348Z,5.67
2019-01-16T07:57:36.061Z,6.13
2019-01-16T08:00:13.246Z,5.50
2019-01-16T08:02:55.198Z,6.20
2019-01-16T08:05:33.991Z,5.77
2019-01-16T08:08:03.745Z,5.70
2019-01-16T08:10:33.570Z,6.20
2019-01-16T08:13:12.338Z,5.93
2019-01-16T08:15:44.560Z,5.63
2019-01-16T08:18:19.889Z,6.60
2019-01-16T08:21:05.583Z,5.73
2019-01-16T08:23:44.233Z,5.77
2019-01-16T08:26:19.714Z,5.67
2019-01-16T08:29:01.391Z,6.43
2019-01-16T08:31:31.175Z,5.23
2019-01-16T08:34:00.959Z,6.43
2019-01-16T08:36:47.157Z,6.10
2019-01-16T08:39:31.759Z,6.30
2019-01-16T08:42:07.241Z,5.77
2019-01-16T08:44:39.717Z,6.43
2019-01-16T08:47:18.198Z,6.17
2019-01-16T08:49:53.458Z,5.50
2019-01-16T08:52:31.753Z,5.53
2019-01-16T08:55:01.536Z,5.93
2019-01-16T08:57:46.019Z,5.70
2019-01-16T09:00:19.435Z,5.43
2019-01-16T09:02:54.839Z,6.07
2019-01-16T09:05:24.611Z,6.43
2019-01-16T09:08:09.187Z,5.80
2019-01-16T09:10:56.594Z,5.70
2019-01-16T09:13:26.526Z,6.17
2019-01-16T09:16:12.311Z,6.17
2019-01-16T09:18:42.414Z,5.83
2019-01-16T09:21:24.002Z,6.00
2019-01-16T09:23:56.548Z,5.63
2019-01-16T09:26:28.800Z,5.70
2019-01-16T09:29:14.908Z,5.30
2019-01-16T09:32:02.705Z,5.00
2019-01-16T09:34:44.193Z,5.30
2019-01-16T09:37:13.968Z,5.00
2019-01-16T09:39:49.489Z,5.50
2019-01-16T09:42:19.325Z,4.67
2019-01-16T09:44:49.106Z,4.73
2019-01-16T09:47:20.422Z,4.33
2019-01-16T09:49:50.219Z,4.83
2019-01-16T09:52:36.305Z,4.27
2019-01-16T09:55:07.757Z,3.83
2019-01-16T09:57:52.573Z,4.03
2019-01-16T10:00:37.381Z,3.90
2019-01-16T10:03:07.194Z,4.27
2019-01-16T10:05:36.963Z,3.87
2019-01-16T10:08:06.738Z,4.13
2019-01-16T10:10:48.325Z,3.97
2019-01-16T10:13:33.077Z,3.97
2019-01-16T10:16:02.918Z,4.60
2019-01-16T10:18:41.493Z,4.30
2019-01-16T10:21:11.590Z,4.43
2019-01-16T10:23:57.397Z,3.90
2019-01-16T10:26:43.292Z,4.03
2019-01-16T10:29:24.921Z,3.80
2019-01-16T10:31:57.487Z,4.17
2019-01-16T10:34:29.805Z,4.40
2019-01-16T10:37:15.795Z,4.47
2019-01-16T10:39:45.557Z,4.50
2019-01-16T10:42:23.953Z,3.50
2019-01-16T10:45:05.423Z,3.90
2019-01-16T10:47:37.785Z,3.90
2019-01-16T10:50:18.354Z,4.47
2019-01-16T10:53:04.670Z,4.70
2019-01-16T10:55:40.355Z,5.00
2019-01-16T10:58:26.442Z,4.50
2019-01-16T11:01:07.949Z,3.53
2019-01-16T11:03:46.844Z,3.63
2019-01-16T11:06:16.570Z,3.87
2019-01-16T11:08:48.799Z,4.30
2019-01-16T11:11:34.551Z,4.20
2019-01-16T11:14:20.338Z,4.20
2019-01-16T11:17:08.432Z,3.80
2019-01-16T11:19:44.100Z,4.67
2019-01-16T11:22:16.747Z,4.30
2019-01-16T11:24:49.196Z,4.47
2019-01-16T11:27:22.062Z,4.13
2019-01-16T11:30:03.441Z,4.10
2019-01-16T11:32:33.526Z,4.00
2019-01-16T11:35:03.279Z,3.73
2019-01-16T11:37:38.634Z,3.90
2019-01-16T11:40:09.909Z,4.23
2019-01-16T11:42:39.621Z,4.33
2019-01-16T11:45:09.621Z,4.37
2019-01-16T11:47:42.393Z,4.03
2019-01-16T11:50:18.142Z,4.47
2019-01-16T11:52:47.863Z,4.17
2019-01-16T11:55:20.374Z,4.73
2019-01-16T11:58:05.966Z,4.37
2019-01-16T12:00:47.325Z,4.40
2019-01-16T12:03:25.653Z,4.53
2019-01-16T12:05:55.418Z,5.00
2019-01-16T12:08:25.199Z,4.70
2019-01-16T12:11:11.110Z,4.60
2019-01-16T12:13:49.450Z,4.87
2019-01-16T12:16:35.297Z,4.53
2019-01-16T12:19:13.741Z,4.90
2019-01-16T12:21:43.711Z,4.30
2019-01-16T12:24:22.162Z,4.10
2019-01-16T12:27:09.808Z,4.40
2019-01-16T12:29:48.268Z,4.70
2019-01-16T12:32:26.774Z,4.20
2019-01-16T12:34:56.516Z,4.40
2019-01-16T12:37:44.248Z,4.73
2019-01-16T12:40:22.570Z,4.40
2019-01-16T12:42:52.384Z,4.50
2019-01-16T12:45:22.117Z,4.40
2019-01-16T12:48:00.653Z,4.80
2019-01-16T12:50:36.154Z,4.43
2019-01-16T12:53:23.629Z,4.37
2019-01-16T12:56:11.003Z,4.47
2019-01-16T12:58:44.051Z,4.47
2019-01-16T13:01:31.652Z,4.47
2019-01-16T13:04:03.863Z,4.73
2019-01-16T13:06:45.177Z,4.50
2019-01-16T13:09:30.342Z,4.47
2019-01-16T13:12:08.971Z,4.47
2019-01-16T13:14:39.177Z,4.33
2019-01-16T13:17:25.089Z,4.27
2019-01-16T13:19:54.898Z,4.47
2019-01-16T13:22:24.674Z,4.47
2019-01-16T13:25:00.567Z,4.37
2019-01-16T13:27:48.434Z,5.13
2019-01-16T13:30:18.364Z,4.60
2019-01-16T13:32:48.146Z,4.50
2019-01-16T13:35:30.010Z,4.50
2019-01-16T13:37:59.774Z,4.53
2019-01-16T13:40:38.397Z,4.40
2019-01-16T13:43:08.133Z,4.37
2019-01-16T13:45:37.889Z,4.57
2019-01-16T13:48:25.920Z,4.53
2019-01-16T13:51:01.291Z,4.60
2019-01-16T13:53:45.781Z,4.80
2019-01-16T13:56:18.341Z,4.73
2019-01-16T13:58:57.066Z,4.60
2019-01-16T14:01:44.573Z,4.83
2019-01-16T14:04:20.242Z,4.77
2019-01-16T14:07:06.278Z,4.93
2019-01-16T14:09:44.853Z,5.10
2019-01-16T14:12:14.607Z,4.60
2019-01-16T14:14:49.980Z,4.63
2019-01-16T14:17:40.189Z,5.10
2019-01-16T14:20:17.776Z,4.77
2019-01-16T14:22:50.033Z,4.90
2019-01-16T14:25:28.510Z,4.93
2019-01-16T14:28:01.135Z,5.03
2019-01-16T14:30:42.782Z,5.40
2019-01-16T14:33:30.565Z,4.67
2019-01-16T14:36:09.490Z,4.83
2019-01-16T14:38:56.920Z,5.27
2019-01-16T14:41:32.499Z,5.00
2019-01-16T14:44:07.946Z,5.20
2019-01-16T14:46:37.903Z,5.03
2019-01-16T14:49:07.783Z,4.73
2019-01-16T14:51:37.733Z,4.67
2019-01-16T14:54:10.226Z,5.00
2019-01-16T14:56:42.575Z,4.90
2019-01-16T14:59:28.485Z,4.67
2019-01-16T15:02:09.970Z,5.00
2019-01-16T15:04:45.594Z,4.47
2019-01-16T15:07:24.283Z,4.70
2019-01-16T15:10:05.957Z,4.67
2019-01-16T15:12:38.302Z,4.93
2019-01-16T15:15:14.206Z,4.50
2019-01-16T15:17:43.983Z,4.50
2019-01-16T15:20:28.621Z,4.50
2019-01-16T15:23:01.203Z,5.10
2019-01-16T15:25:36.681Z,4.70
2019-01-16T15:28:12.137Z,4.93
2019-01-16T15:30:42.078Z,4.80
2019-01-16T15:33:21.007Z,4.63
2019-01-16T15:35:58.259Z,4.80
2019-01-16T15:38:27.454Z,4.50
2019-01-16T15:41:09.076Z,4.60
2019-01-16T15:43:44.626Z,4.63
2019-01-16T15:46:16.969Z,4.83
2019-01-16T15:48:46.762Z,4.77
2019-01-16T15:51:16.780Z,4.70
2019-01-16T15:53:46.565Z,4.87
2019-01-16T15:56:18.906Z,4.93
2019-01-16T15:58:48.671Z,4.80
2019-01-16T16:01:18.630Z,4.87
2019-01-16T16:03:48.397Z,5.00
2019-01-16T16:06:27.096Z,5.00
2019-01-16T16:08:56.873Z,4.80
2019-01-16T16:11:26.717Z,5.20
2019-01-16T16:14:05.437Z,5.10
2019-01-16T16:16:35.218Z,4.60
2019-01-16T16:19:10.718Z,4.40
2019-01-16T16:21:56.614Z,4.43
2019-01-16T16:24:29.775Z,4.50
2019-01-16T16:26:59.643Z,4.10
2019-01-16T16:29:32.299Z,4.40
2019-01-16T16:32:07.874Z,4.10
2019-01-16T16:34:37.978Z,4.27
2019-01-16T16:37:24.046Z,3.80
2019-01-16T16:39:56.582Z,4.00
2019-01-16T16:42:28.827Z,4.30
2019-01-16T16:45:01.485Z,4.00
2019-01-16T16:47:33.881Z,3.80
2019-01-16T16:50:06.738Z,3.80
2019-01-16T16:52:42.438Z,4.07
2019-01-16T16:55:20.870Z,3.70
2019-01-16T16:57:50.642Z,3.97
2019-01-16T17:00:20.413Z,4.30
2019-01-16T17:02:52.701Z,4.10
2019-01-16T17:05:38.711Z,4.30
2019-01-16T17:08:08.628Z,3.97
2019-01-16T17:10:40.949Z,3.73
2019-01-16T17:13:13.737Z,4.47
2019-01-16T17:16:01.754Z,4.03
2019-01-16T17:18:40.516Z,4.40
2019-01-16T17:21:12.962Z,4.30
2019-01-16T17:23:59.430Z,4.53
2019-01-16T17:26:37.923Z,4.90
2019-01-16T17:29:23.870Z,5.10
2019-01-16T17:31:53.702Z,5.97
2019-01-16T17:34:29.274Z,5.60
2019-01-16T17:37:10.759Z,6.23
2019-01-16T17:39:46.215Z,6.00
2019-01-16T17:42:15.985Z,6.10
2019-01-16T17:44:57.646Z,6.40
2019-01-16T17:47:27.411Z,6.17
2019-01-16T17:50:13.186Z,6.90
2019-01-16T17:52:59.225Z,7.07
2019-01-16T17:55:34.942Z,7.03
2019-01-16T17:58:16.400Z,7.07
2019-01-16T18:00:48.651Z,8.17
2019-01-16T18:03:34.646Z,7.87
2019-01-16T18:06:07.115Z,7.70
2019-01-16T18:08:36.926Z,8.07
2019-01-16T18:11:09.294Z,8.00
2019-01-16T18:13:41.882Z,8.07
2019-01-16T18:16:17.130Z,8.40
2019-01-16T18:19:03.148Z,8.30
2019-01-16T18:21:33.477Z,8.90
2019-01-16T18:24:15.258Z,8.03
2019-01-16T18:26:56.737Z,7.90
2019-01-16T18:29:26.582Z,8.50
2019-01-16T18:31:56.356Z,8.07
2019-01-16T18:34:31.838Z,8.57
2019-01-16T18:37:17.503Z,8.67
2019-01-16T18:39:59.195Z,8.97
2019-01-16T18:42:43.679Z,9.00
2019-01-16T18:45:19.125Z,8.90
2019-01-16T18:47:51.617Z,9.37
2019-01-16T18:50:33.801Z,10.27
2019-01-16T18:53:09.301Z,9.80
2019-01-16T18:55:51.205Z,8.87
2019-01-16T18:58:20.974Z,9.47
2019-01-16T19:00:50.751Z,10.23
2019-01-16T19:03:35.466Z,10.57
2019-01-16T19:06:10.682Z,9.80
2019-01-16T19:08:56.620Z,10.37
2019-01-16T19:11:34.993Z,9.83
2019-01-16T19:14:10.706Z,10.07
2019-01-16T19:16:56.440Z,10.60
2019-01-16T19:19:26.281Z,9.93
2019-01-16T19:21:56.042Z,10.70
2019-01-16T19:24:25.795Z,10.37
2019-01-16T19:27:13.568Z,9.90
2019-01-16T19:29:55.113Z,9.60
2019-01-16T19:32:39.740Z,10.20
2019-01-16T19:35:15.687Z,10.20
2019-01-16T19:37:45.505Z,9.93
2019-01-16T19:40:31.253Z,11.10
2019-01-16T19:43:03.828Z,10.70
2019-01-16T19:45:48.327Z,11.77
2019-01-16T19:48:34.234Z,9.93
2019-01-16T19:51:15.732Z,10.43
2019-01-16T19:53:54.306Z,9.87
2019-01-16T19:56:29.649Z,10.40
2019-01-16T19:59:02.227Z,10.20
2019-01-16T20:01:48.065Z,10.33
2019-01-16T20:04:29.469Z,9.73
2019-01-16T20:07:01.921Z,11.00
2019-01-16T20:09:46.791Z,10.33
2019-01-16T20:12:31.239Z,10.47
2019-01-16T20:15:09.959Z,10.40
2019-01-16T20:17:39.725Z,10.13
2019-01-16T20:20:28.958Z,10.47
2019-01-16T20:23:13.523Z,11.47
2019-01-16T20:26:01.226Z,12.00
2019-01-16T20:28:39.674Z,10.77
2019-01-16T20:31:18.170Z,10.90
2019-01-16T20:34:05.942Z,11.13
2019-01-16T20:36:51.883Z,10.13
2019-01-16T20:39:30.422Z,11.00
2019-01-16T20:42:05.754Z,11.20
2019-01-16T20:44:53.301Z,10.40
2019-01-16T20:47:32.000Z,10.43
2019-01-16T20:50:13.492Z,10.50
2019-01-16T20:52:49.316Z,10.47
2019-01-16T20:55:21.707Z,10.53
2019-01-16T20:58:03.278Z,10.60
2019-01-16T21:00:49.481Z,10.53
2019-01-16T21:03:27.777Z,10.80
2019-01-16T21:05:57.546Z,9.83
2019-01-16T21:08:33.132Z,9.90
2019-01-16T21:11:02.922Z,9.77
2019-01-16T21:13:41.617Z,10.47
2019-01-16T21:16:13.878Z,10.03
2019-01-16T21:18:43.666Z,9.83
2019-01-16T21:21:13.697Z,10.10
2019-01-16T21:23:55.478Z,10.50
2019-01-16T21:26:28.030Z,10.57
2019-01-16T21:29:03.514Z,10.07
2019-01-16T21:31:39.144Z,10.63
2019-01-16T21:34:11.738Z,10.97
2019-01-16T21:36:44.079Z,10.60
2019-01-16T21:39:19.465Z,11.40
2019-01-16T21:42:07.267Z,11.67
2019-01-16T21:44:37.065Z,12.10
2019-01-16T21:47:21.741Z,11.27
2019-01-16T21:49:51.556Z,11.80
2019-01-16T21:52:23.873Z,11.57
2019-01-16T21:55:09.918Z,10.67
2019-01-16T21:57:39.710Z,11.43
2019-01-16T22:00:22.951Z,11.70
2019-01-16T22:03:09.044Z,11.50
2019-01-16T22:05:56.914Z,11.87
2019-01-16T22:08:26.797Z,11.20
2019-01-16T22:10:56.582Z,11.73
2019-01-16T22:13:35.261Z,12.03
2019-01-16T22:16:10.623Z,11.07
2019-01-16T22:18:43.024Z,12.33
2019-01-16T22:21:12.801Z,11.10
2019-01-16T22:23:51.874Z,11.07
2019-01-16T22:26:30.169Z,12.67
2019-01-16T22:29:00.245Z,11.90
2019-01-16T22:31:35.749Z,11.83
2019-01-16T22:34:14.956Z,12.03
2019-01-16T22:36:56.327Z,12.10
2019-01-16T22:39:31.886Z,12.73
2019-01-16T22:42:04.158Z,11.67
2019-01-16T22:44:42.718Z,12.27
2019-01-16T22:47:12.530Z,11.50
2019-01-16T22:49:42.317Z,12.17
2019-01-16T22:52:12.134Z,11.23
2019-01-16T22:54:41.909Z,11.37
2019-01-16T22:57:11.906Z,12.23
2019-01-16T22:59:50.309Z,12.50
2019-01-16T23:02:20.113Z,12.03
2019-01-16T23:04:49.897Z,12.83
2019-01-16T23:07:25.212Z,12.37
2019-01-16T23:10:11.265Z,12.37
2019-01-16T23:12:57.538Z,12.53
2019-01-16T23:15:42.026Z,12.30
2019-01-16T23:18:27.821Z,12.50
2019-01-16T23:21:00.490Z,12.07
2019-01-16T23:23:30.354Z,12.57
2019-01-16T23:26:05.779Z,12.40
2019-01-16T23:28:51.682Z,12.63
2019-01-16T23:31:24.294Z,12.23
2019-01-16T23:33:56.638Z,11.90
2019-01-16T23:36:26.423Z,12.10
2019-01-16T23:39:12.413Z,11.97
2019-01-16T23:41:47.718Z,12.47
2019-01-16T23:44:29.386Z,11.90
2019-01-16T23:46:59.177Z,11.40
2019-01-16T23:49:28.973Z,12.43
2019-01-16T23:51:58.921Z,12.13
2019-01-16T23:54:34.426Z,11.70
2019-01-16T23:57:15.877Z,12.13
